sensor_id;sensor_type;location;lat;lon;timestamp;P1;durP1;ratioP1;P2;durP2;ratioP2
35304;SDS011;26433;48.034;-1.764;2023-06-10T00:03:30;4.13;;;2.20;;
35304;SDS011;26433;48.034;-1.764;2023-06-10T00:08:36;2.90;;;2.00;;
35304;SDS011;26433;48.034;-1.764;2023-06-10T00:13:41;2.50;;;1.75;;
35304;SDS011;26433;48.034;-1.764;2023-06-10T00:18:45;2.58;;;1.83;;
35304;SDS011;26433;48.034;-1.764;2023-06-10T00:23:50;3.20;;;1.70;;
35304;SDS011;26433;48.034;-1.764;2023-06-10T00:28:54;2.60;;;2.20;;
35304;SDS011;26433;48.034;-1.764;2023-06-10T00:33:57;2.23;;;1.80;;
35304;SDS011;26433;48.034;-1.764;2023-06-10T00:39:02;2.75;;;1.80;;
35304;SDS011;26433;48.034;-1.764;2023-06-10T00:44:06;2.33;;;1.92;;
35304;SDS011;26433;48.034;-1.764;2023-06-10T00:49:10;3.57;;;2.50;;
35304;SDS011;26433;48.034;-1.764;2023-06-10T00:54:16;2.40;;;1.87;;
35304;SDS011;26433;48.034;-1.764;2023-06-10T00:59:21;2.58;;;1.67;;
35304;SDS011;26433;48.034;-1.764;2023-06-10T01:04:24;3.72;;;1.90;;
35304;SDS011;26433;48.034;-1.764;2023-06-10T01:09:32;2.70;;;2.27;;
35304;SDS011;26433;48.034;-1.764;2023-06-10T01:14:42;3.45;;;2.28;;
35304;SDS011;26433;48.034;-1.764;2023-06-10T01:19:52;3.08;;;2.15;;
35304;SDS011;26433;48.034;-1.764;2023-06-10T01:24:59;3.37;;;2.17;;
35304;SDS011;26433;48.034;-1.764;2023-06-10T01:30:07;2.95;;;2.12;;
35304;SDS011;26433;48.034;-1.764;2023-06-10T01:35:15;5.47;;;2.58;;
35304;SDS011;26433;48.034;-1.764;2023-06-10T01:40:21;3.08;;;2.12;;
35304;SDS011;26433;48.034;-1.764;2023-06-10T01:45:26;3.85;;;2.47;;
35304;SDS011;26433;48.034;-1.764;2023-06-10T01:50:30;3.53;;;2.03;;
35304;SDS011;26433;48.034;-1.764;2023-06-10T01:55:35;5.00;;;2.10;;
35304;SDS011;26433;48.034;-1.764;2023-06-10T02:00:39;6.72;;;2.78;;
35304;SDS011;26433;48.034;-1.764;2023-06-10T02:05:43;3.35;;;2.60;;
35304;SDS011;26433;48.034;-1.764;2023-06-10T02:10:48;2.97;;;2.17;;
35304;SDS011;26433;48.034;-1.764;2023-06-10T02:15:52;3.72;;;2.20;;
35304;SDS011;26433;48.034;-1.764;2023-06-10T02:26:01;3.08;;;2.35;;
35304;SDS011;26433;48.034;-1.764;2023-06-10T02:31:05;4.87;;;2.53;;
35304;SDS011;26433;48.034;-1.764;2023-06-10T02:36:09;7.72;;;2.42;;
35304;SDS011;26433;48.034;-1.764;2023-06-10T02:41:16;3.47;;;2.30;;
35304;SDS011;26433;48.034;-1.764;2023-06-10T02:46:20;3.97;;;2.55;;
35304;SDS011;26433;48.034;-1.764;2023-06-10T02:51:27;5.12;;;2.30;;
35304;SDS011;26433;48.034;-1.764;2023-06-10T02:56:32;5.12;;;3.12;;
35304;SDS011;26433;48.034;-1.764;2023-06-10T03:01:37;7.05;;;2.50;;
35304;SDS011;26433;48.034;-1.764;2023-06-10T03:06:42;5.90;;;2.50;;
35304;SDS011;26433;48.034;-1.764;2023-06-10T03:11:50;4.32;;;2.62;;
35304;SDS011;26433;48.034;-1.764;2023-06-10T03:16:54;3.83;;;2.05;;
35304;SDS011;26433;48.034;-1.764;2023-06-10T03:22:06;3.25;;;2.20;;
35304;SDS011;26433;48.034;-1.764;2023-06-10T03:27:13;3.20;;;2.40;;
35304;SDS011;26433;48.034;-1.764;2023-06-10T03:32:17;5.55;;;2.40;;
35304;SDS011;26433;48.034;-1.764;2023-06-10T03:37:21;3.15;;;2.33;;
35304;SDS011;26433;48.034;-1.764;2023-06-10T03:42:27;5.75;;;2.20;;
35304;SDS011;26433;48.034;-1.764;2023-06-10T03:47:33;3.90;;;2.58;;
35304;SDS011;26433;48.034;-1.764;2023-06-10T03:52:39;6.15;;;2.35;;
35304;SDS011;26433;48.034;-1.764;2023-06-10T03:57:44;4.43;;;2.12;;
35304;SDS011;26433;48.034;-1.764;2023-06-10T04:02:48;4.10;;;2.05;;
35304;SDS011;26433;48.034;-1.764;2023-06-10T04:07:54;3.15;;;2.17;;
35304;SDS011;26433;48.034;-1.764;2023-06-10T04:13:00;3.28;;;2.10;;
35304;SDS011;26433;48.034;-1.764;2023-06-10T04:18:05;4.15;;;2.20;;
35304;SDS011;26433;48.034;-1.764;2023-06-10T04:23:11;5.32;;;2.42;;
35304;SDS011;26433;48.034;-1.764;2023-06-10T04:28:16;6.25;;;2.10;;
35304;SDS011;26433;48.034;-1.764;2023-06-10T04:33:20;2.97;;;1.90;;
35304;SDS011;26433;48.034;-1.764;2023-06-10T04:38:24;3.25;;;2.12;;
35304;SDS011;26433;48.034;-1.764;2023-06-10T04:43:30;4.15;;;2.12;;
35304;SDS011;26433;48.034;-1.764;2023-06-10T04:48:34;3.17;;;2.17;;
35304;SDS011;26433;48.034;-1.764;2023-06-10T04:53:39;4.57;;;2.40;;
35304;SDS011;26433;48.034;-1.764;2023-06-10T04:58:44;8.07;;;2.63;;
35304;SDS011;26433;48.034;-1.764;2023-06-10T05:03:47;3.95;;;2.95;;
35304;SDS011;26433;48.034;-1.764;2023-06-10T05:08:51;3.08;;;2.03;;
35304;SDS011;26433;48.034;-1.764;2023-06-10T05:13:56;4.60;;;2.70;;
35304;SDS011;26433;48.034;-1.764;2023-06-10T05:19:00;6.05;;;2.62;;
35304;SDS011;26433;48.034;-1.764;2023-06-10T05:24:07;3.25;;;2.35;;
35304;SDS011;26433;48.034;-1.764;2023-06-10T05:29:12;6.18;;;3.40;;
35304;SDS011;26433;48.034;-1.764;2023-06-10T05:34:17;9.95;;;3.03;;
35304;SDS011;26433;48.034;-1.764;2023-06-10T05:39:20;6.68;;;2.72;;
35304;SDS011;26433;48.034;-1.764;2023-06-10T05:44:25;8.53;;;2.60;;
35304;SDS011;26433;48.034;-1.764;2023-06-10T05:49:29;5.50;;;3.17;;
35304;SDS011;26433;48.034;-1.764;2023-06-10T05:54:33;6.85;;;3.50;;
35304;SDS011;26433;48.034;-1.764;2023-06-10T05:59:38;8.90;;;3.17;;
35304;SDS011;26433;48.034;-1.764;2023-06-10T06:04:41;6.87;;;3.50;;
35304;SDS011;26433;48.034;-1.764;2023-06-10T06:09:45;5.07;;;3.40;;
35304;SDS011;26433;48.034;-1.764;2023-06-10T06:14:50;6.32;;;3.53;;
35304;SDS011;26433;48.034;-1.764;2023-06-10T06:19:54;6.43;;;3.78;;
35304;SDS011;26433;48.034;-1.764;2023-06-10T06:24:57;5.17;;;3.40;;
35304;SDS011;26433;48.034;-1.764;2023-06-10T06:30:03;5.97;;;3.53;;
35304;SDS011;26433;48.034;-1.764;2023-06-10T06:35:08;4.70;;;3.15;;
35304;SDS011;26433;48.034;-1.764;2023-06-10T06:40:12;4.80;;;2.92;;
35304;SDS011;26433;48.034;-1.764;2023-06-10T06:45:17;8.40;;;3.78;;
35304;SDS011;26433;48.034;-1.764;2023-06-10T06:50:21;7.60;;;3.45;;
35304;SDS011;26433;48.034;-1.764;2023-06-10T06:55:25;8.10;;;4.67;;
35304;SDS011;26433;48.034;-1.764;2023-06-10T07:00:30;7.40;;;3.23;;
35304;SDS011;26433;48.034;-1.764;2023-06-10T07:05:34;9.57;;;4.00;;
35304;SDS011;26433;48.034;-1.764;2023-06-10T07:10:38;6.47;;;3.50;;
35304;SDS011;26433;48.034;-1.764;2023-06-10T07:15:43;6.63;;;3.13;;
35304;SDS011;26433;48.034;-1.764;2023-06-10T07:20:46;4.90;;;3.47;;
35304;SDS011;26433;48.034;-1.764;2023-06-10T07:25:52;5.45;;;3.12;;
35304;SDS011;26433;48.034;-1.764;2023-06-10T07:30:57;5.57;;;3.27;;
35304;SDS011;26433;48.034;-1.764;2023-06-10T07:36:02;6.15;;;3.55;;
35304;SDS011;26433;48.034;-1.764;2023-06-10T07:41:06;5.97;;;3.72;;
35304;SDS011;26433;48.034;-1.764;2023-06-10T07:46:11;4.20;;;3.10;;
35304;SDS011;26433;48.034;-1.764;2023-06-10T07:51:14;5.35;;;3.22;;
35304;SDS011;26433;48.034;-1.764;2023-06-10T07:56:18;5.87;;;3.62;;
35304;SDS011;26433;48.034;-1.764;2023-06-10T08:01:24;8.90;;;3.53;;
35304;SDS011;26433;48.034;-1.764;2023-06-10T08:06:28;6.43;;;3.00;;
35304;SDS011;26433;48.034;-1.764;2023-06-10T08:11:32;9.57;;;2.80;;
35304;SDS011;26433;48.034;-1.764;2023-06-10T08:16:37;4.82;;;2.95;;
35304;SDS011;26433;48.034;-1.764;2023-06-10T08:21:41;3.45;;;2.65;;
35304;SDS011;26433;48.034;-1.764;2023-06-10T08:26:45;3.42;;;2.30;;
35304;SDS011;26433;48.034;-1.764;2023-06-10T08:31:50;4.57;;;3.03;;
35304;SDS011;26433;48.034;-1.764;2023-06-10T08:36:53;3.65;;;2.78;;
35304;SDS011;26433;48.034;-1.764;2023-06-10T08:42:00;2.83;;;2.53;;
35304;SDS011;26433;48.034;-1.764;2023-06-10T08:47:14;4.15;;;2.65;;
35304;SDS011;26433;48.034;-1.764;2023-06-10T08:52:20;3.45;;;2.47;;
35304;SDS011;26433;48.034;-1.764;2023-06-10T08:57:23;4.57;;;2.72;;
35304;SDS011;26433;48.034;-1.764;2023-06-10T09:02:30;3.17;;;2.17;;
35304;SDS011;26433;48.034;-1.764;2023-06-10T09:07:37;6.35;;;2.58;;
35304;SDS011;26433;48.034;-1.764;2023-06-10T09:12:41;3.40;;;2.35;;
35304;SDS011;26433;48.034;-1.764;2023-06-10T09:17:46;3.80;;;2.30;;
35304;SDS011;26433;48.034;-1.764;2023-06-10T09:22:50;3.05;;;2.45;;
35304;SDS011;26433;48.034;-1.764;2023-06-10T09:27:54;3.37;;;2.78;;
35304;SDS011;26433;48.034;-1.764;2023-06-10T09:33:00;3.35;;;2.95;;
35304;SDS011;26433;48.034;-1.764;2023-06-10T09:38:06;3.87;;;2.83;;
35304;SDS011;26433;48.034;-1.764;2023-06-10T09:43:11;6.10;;;3.08;;
35304;SDS011;26433;48.034;-1.764;2023-06-10T09:48:16;6.15;;;3.53;;
35304;SDS011;26433;48.034;-1.764;2023-06-10T09:53:20;5.95;;;3.10;;
35304;SDS011;26433;48.034;-1.764;2023-06-10T09:58:33;4.68;;;3.33;;
35304;SDS011;26433;48.034;-1.764;2023-06-10T10:03:46;5.10;;;3.17;;
35304;SDS011;26433;48.034;-1.764;2023-06-10T10:08:53;4.80;;;3.30;;
35304;SDS011;26433;48.034;-1.764;2023-06-10T10:13:57;8.18;;;3.22;;
35304;SDS011;26433;48.034;-1.764;2023-06-10T10:19:04;4.65;;;3.35;;
35304;SDS011;26433;48.034;-1.764;2023-06-10T10:24:12;9.32;;;3.33;;
35304;SDS011;26433;48.034;-1.764;2023-06-10T10:29:22;6.70;;;3.70;;
35304;SDS011;26433;48.034;-1.764;2023-06-10T10:34:33;4.00;;;3.12;;
35304;SDS011;26433;48.034;-1.764;2023-06-10T10:39:40;4.45;;;3.40;;
35304;SDS011;26433;48.034;-1.764;2023-06-10T10:49:50;6.68;;;3.33;;
35304;SDS011;26433;48.034;-1.764;2023-06-10T10:54:55;3.85;;;2.78;;
35304;SDS011;26433;48.034;-1.764;2023-06-10T10:59:59;3.33;;;2.67;;
35304;SDS011;26433;48.034;-1.764;2023-06-10T11:05:05;5.50;;;2.92;;
35304;SDS011;26433;48.034;-1.764;2023-06-10T11:10:11;5.28;;;3.12;;
35304;SDS011;26433;48.034;-1.764;2023-06-10T11:15:18;6.45;;;4.15;;
35304;SDS011;26433;48.034;-1.764;2023-06-10T11:25:46;3.95;;;3.28;;
35304;SDS011;26433;48.034;-1.764;2023-06-10T11:30:52;4.37;;;3.00;;
35304;SDS011;26433;48.034;-1.764;2023-06-10T11:36:01;4.82;;;3.22;;
35304;SDS011;26433;48.034;-1.764;2023-06-10T11:41:10;4.32;;;2.92;;
35304;SDS011;26433;48.034;-1.764;2023-06-10T11:46:14;5.22;;;3.30;;
35304;SDS011;26433;48.034;-1.764;2023-06-10T11:51:20;4.05;;;3.22;;
35304;SDS011;26433;48.034;-1.764;2023-06-10T11:56:24;3.03;;;2.72;;
35304;SDS011;26433;48.034;-1.764;2023-06-10T12:01:29;4.57;;;3.08;;
35304;SDS011;26433;48.034;-1.764;2023-06-10T12:06:44;4.12;;;3.03;;
35304;SDS011;26433;48.034;-1.764;2023-06-10T12:11:51;4.78;;;3.30;;
35304;SDS011;26433;48.034;-1.764;2023-06-10T12:16:56;3.58;;;2.70;;
35304;SDS011;26433;48.034;-1.764;2023-06-10T12:22:02;4.10;;;3.22;;
35304;SDS011;26433;48.034;-1.764;2023-06-10T12:27:06;3.92;;;2.40;;
35304;SDS011;26433;48.034;-1.764;2023-06-10T12:32:14;5.30;;;2.92;;
35304;SDS011;26433;48.034;-1.764;2023-06-10T12:37:19;5.60;;;2.55;;
35304;SDS011;26433;48.034;-1.764;2023-06-10T12:42:23;3.33;;;2.83;;
35304;SDS011;26433;48.034;-1.764;2023-06-10T12:47:30;3.67;;;3.20;;
35304;SDS011;26433;48.034;-1.764;2023-06-10T12:52:38;2.92;;;2.58;;
35304;SDS011;26433;48.034;-1.764;2023-06-10T12:57:51;5.07;;;3.05;;
35304;SDS011;26433;48.034;-1.764;2023-06-10T13:02:55;3.95;;;3.05;;
35304;SDS011;26433;48.034;-1.764;2023-06-10T13:08:01;2.97;;;2.53;;
35304;SDS011;26433;48.034;-1.764;2023-06-10T13:13:05;3.70;;;3.05;;
35304;SDS011;26433;48.034;-1.764;2023-06-10T13:18:11;4.20;;;3.30;;
35304;SDS011;26433;48.034;-1.764;2023-06-10T13:23:16;3.28;;;2.60;;
35304;SDS011;26433;48.034;-1.764;2023-06-10T13:28:20;2.97;;;2.47;;
35304;SDS011;26433;48.034;-1.764;2023-06-10T13:33:24;2.58;;;2.30;;
35304;SDS011;26433;48.034;-1.764;2023-06-10T13:38:29;4.07;;;2.22;;
35304;SDS011;26433;48.034;-1.764;2023-06-10T13:43:32;2.30;;;2.10;;
35304;SDS011;26433;48.034;-1.764;2023-06-10T13:53:41;2.85;;;2.42;;
35304;SDS011;26433;48.034;-1.764;2023-06-10T13:58:45;2.60;;;1.90;;
35304;SDS011;26433;48.034;-1.764;2023-06-10T14:03:48;2.72;;;1.70;;
35304;SDS011;26433;48.034;-1.764;2023-06-10T14:08:53;2.50;;;2.30;;
35304;SDS011;26433;48.034;-1.764;2023-06-10T14:13:57;2.28;;;1.87;;
35304;SDS011;26433;48.034;-1.764;2023-06-10T14:19:02;3.67;;;1.98;;
35304;SDS011;26433;48.034;-1.764;2023-06-10T14:24:07;2.30;;;2.05;;
35304;SDS011;26433;48.034;-1.764;2023-06-10T14:29:11;2.15;;;1.75;;
35304;SDS011;26433;48.034;-1.764;2023-06-10T14:34:16;3.10;;;1.77;;
35304;SDS011;26433;48.034;-1.764;2023-06-10T14:39:21;2.53;;;1.90;;
35304;SDS011;26433;48.034;-1.764;2023-06-10T14:44:24;2.47;;;1.67;;
35304;SDS011;26433;48.034;-1.764;2023-06-10T14:49:28;1.77;;;1.65;;
35304;SDS011;26433;48.034;-1.764;2023-06-10T14:54:33;1.73;;;1.62;;
35304;SDS011;26433;48.034;-1.764;2023-06-10T14:59:36;4.10;;;1.92;;
35304;SDS011;26433;48.034;-1.764;2023-06-10T15:04:40;2.80;;;2.00;;
35304;SDS011;26433;48.034;-1.764;2023-06-10T15:09:46;2.20;;;2.00;;
35304;SDS011;26433;48.034;-1.764;2023-06-10T15:14:49;3.20;;;1.83;;
35304;SDS011;26433;48.034;-1.764;2023-06-10T15:19:53;4.25;;;2.00;;
35304;SDS011;26433;48.034;-1.764;2023-06-10T15:24:58;2.25;;;2.05;;
35304;SDS011;26433;48.034;-1.764;2023-06-10T15:30:03;2.97;;;1.90;;
35304;SDS011;26433;48.034;-1.764;2023-06-10T15:35:07;2.12;;;1.80;;
35304;SDS011;26433;48.034;-1.764;2023-06-10T15:40:13;3.08;;;2.10;;
35304;SDS011;26433;48.034;-1.764;2023-06-10T15:45:17;3.42;;;1.98;;
35304;SDS011;26433;48.034;-1.764;2023-06-10T15:50:21;2.20;;;1.85;;
35304;SDS011;26433;48.034;-1.764;2023-06-10T15:55:26;3.08;;;2.08;;
35304;SDS011;26433;48.034;-1.764;2023-06-10T16:00:30;2.62;;;1.90;;
35304;SDS011;26433;48.034;-1.764;2023-06-10T16:05:34;1.73;;;1.52;;
35304;SDS011;26433;48.034;-1.764;2023-06-10T16:10:39;2.30;;;1.87;;
35304;SDS011;26433;48.034;-1.764;2023-06-10T16:15:43;2.03;;;1.73;;
35304;SDS011;26433;48.034;-1.764;2023-06-10T16:20:46;2.62;;;1.75;;
35304;SDS011;26433;48.034;-1.764;2023-06-10T16:25:52;2.90;;;2.08;;
35304;SDS011;26433;48.034;-1.764;2023-06-10T16:30:55;2.75;;;2.05;;
35304;SDS011;26433;48.034;-1.764;2023-06-10T16:35:59;2.10;;;1.90;;
35304;SDS011;26433;48.034;-1.764;2023-06-10T16:41:04;2.12;;;1.85;;
35304;SDS011;26433;48.034;-1.764;2023-06-10T16:46:08;2.22;;;2.00;;
35304;SDS011;26433;48.034;-1.764;2023-06-10T16:51:11;2.42;;;1.83;;
35304;SDS011;26433;48.034;-1.764;2023-06-10T16:56:16;3.42;;;2.22;;
35304;SDS011;26433;48.034;-1.764;2023-06-10T17:01:20;2.05;;;1.83;;
35304;SDS011;26433;48.034;-1.764;2023-06-10T17:06:23;2.45;;;2.00;;
35304;SDS011;26433;48.034;-1.764;2023-06-10T17:11:28;3.90;;;2.40;;
35304;SDS011;26433;48.034;-1.764;2023-06-10T17:16:33;2.42;;;2.22;;
35304;SDS011;26433;48.034;-1.764;2023-06-10T17:21:37;5.80;;;2.40;;
35304;SDS011;26433;48.034;-1.764;2023-06-10T17:26:42;2.62;;;2.08;;
35304;SDS011;26433;48.034;-1.764;2023-06-10T17:31:46;2.40;;;2.15;;
35304;SDS011;26433;48.034;-1.764;2023-06-10T17:36:49;3.40;;;2.80;;
35304;SDS011;26433;48.034;-1.764;2023-06-10T17:41:55;4.32;;;2.58;;
35304;SDS011;26433;48.034;-1.764;2023-06-10T17:46:58;3.47;;;2.47;;
35304;SDS011;26433;48.034;-1.764;2023-06-10T17:52:02;3.10;;;2.28;;
35304;SDS011;26433;48.034;-1.764;2023-06-10T17:57:07;3.50;;;2.20;;
35304;SDS011;26433;48.034;-1.764;2023-06-10T18:02:11;3.78;;;2.55;;
35304;SDS011;26433;48.034;-1.764;2023-06-10T18:07:15;3.00;;;2.70;;
35304;SDS011;26433;48.034;-1.764;2023-06-10T18:12:20;3.13;;;2.23;;
35304;SDS011;26433;48.034;-1.764;2023-06-10T18:17:24;3.60;;;2.65;;
35304;SDS011;26433;48.034;-1.764;2023-06-10T18:22:27;4.05;;;3.28;;
35304;SDS011;26433;48.034;-1.764;2023-06-10T18:27:33;3.15;;;2.72;;
35304;SDS011;26433;48.034;-1.764;2023-06-10T18:32:37;3.47;;;2.65;;
35304;SDS011;26433;48.034;-1.764;2023-06-10T18:37:40;3.15;;;2.47;;
35304;SDS011;26433;48.034;-1.764;2023-06-10T18:42:45;4.32;;;2.42;;
35304;SDS011;26433;48.034;-1.764;2023-06-10T18:47:49;6.12;;;2.42;;
35304;SDS011;26433;48.034;-1.764;2023-06-10T18:52:59;3.95;;;2.90;;
35304;SDS011;26433;48.034;-1.764;2023-06-10T18:58:04;4.70;;;2.28;;
35304;SDS011;26433;48.034;-1.764;2023-06-10T19:03:08;2.55;;;1.87;;
35304;SDS011;26433;48.034;-1.764;2023-06-10T19:08:12;4.45;;;2.28;;
35304;SDS011;26433;48.034;-1.764;2023-06-10T19:13:17;3.23;;;2.20;;
35304;SDS011;26433;48.034;-1.764;2023-06-10T19:18:20;9.70;;;2.90;;
35304;SDS011;26433;48.034;-1.764;2023-06-10T19:23:24;6.18;;;2.35;;
35304;SDS011;26433;48.034;-1.764;2023-06-10T19:28:29;4.67;;;2.53;;
35304;SDS011;26433;48.034;-1.764;2023-06-10T19:33:33;6.55;;;2.45;;
35304;SDS011;26433;48.034;-1.764;2023-06-10T19:38:36;4.90;;;2.67;;
35304;SDS011;26433;48.034;-1.764;2023-06-10T19:43:42;4.10;;;2.62;;
35304;SDS011;26433;48.034;-1.764;2023-06-10T19:48:46;4.05;;;2.92;;
35304;SDS011;26433;48.034;-1.764;2023-06-10T19:53:50;5.25;;;3.35;;
35304;SDS011;26433;48.034;-1.764;2023-06-10T19:58:55;5.17;;;2.60;;
35304;SDS011;26433;48.034;-1.764;2023-06-10T20:03:59;3.42;;;2.45;;
35304;SDS011;26433;48.034;-1.764;2023-06-10T20:09:06;3.30;;;2.08;;
35304;SDS011;26433;48.034;-1.764;2023-06-10T20:14:11;3.90;;;2.15;;
35304;SDS011;26433;48.034;-1.764;2023-06-10T20:19:15;4.35;;;2.47;;
35304;SDS011;26433;48.034;-1.764;2023-06-10T20:24:19;4.90;;;2.25;;
35304;SDS011;26433;48.034;-1.764;2023-06-10T20:29:25;5.25;;;2.78;;
35304;SDS011;26433;48.034;-1.764;2023-06-10T20:34:29;4.80;;;2.62;;
35304;SDS011;26433;48.034;-1.764;2023-06-10T20:39:32;3.73;;;1.90;;
35304;SDS011;26433;48.034;-1.764;2023-06-10T20:44:37;2.97;;;1.90;;
35304;SDS011;26433;48.034;-1.764;2023-06-10T20:49:41;3.80;;;1.87;;
35304;SDS011;26433;48.034;-1.764;2023-06-10T20:54:44;2.57;;;1.60;;
35304;SDS011;26433;48.034;-1.764;2023-06-10T20:59:50;1.63;;;1.20;;
35304;SDS011;26433;48.034;-1.764;2023-06-10T21:04:53;3.45;;;1.60;;
35304;SDS011;26433;48.034;-1.764;2023-06-10T21:09:59;2.10;;;1.40;;
35304;SDS011;26433;48.034;-1.764;2023-06-10T21:15:05;3.03;;;1.73;;
35304;SDS011;26433;48.034;-1.764;2023-06-10T21:20:10;2.60;;;1.70;;
35304;SDS011;26433;48.034;-1.764;2023-06-10T21:25:16;2.30;;;1.65;;
35304;SDS011;26433;48.034;-1.764;2023-06-10T21:30:21;5.82;;;1.83;;
35304;SDS011;26433;48.034;-1.764;2023-06-10T21:35:25;3.05;;;1.40;;
35304;SDS011;26433;48.034;-1.764;2023-06-10T21:40:29;2.87;;;1.80;;
35304;SDS011;26433;48.034;-1.764;2023-06-10T21:45:34;3.80;;;2.33;;
35304;SDS011;26433;48.034;-1.764;2023-06-10T21:50:38;4.95;;;2.42;;
35304;SDS011;26433;48.034;-1.764;2023-06-10T22:07:13;3.92;;;2.00;;
35304;SDS011;26433;48.034;-1.764;2023-06-10T22:12:16;3.00;;;2.03;;
35304;SDS011;26433;48.034;-1.764;2023-06-10T22:17:22;8.27;;;2.12;;
35304;SDS011;26433;48.034;-1.764;2023-06-10T22:22:26;4.03;;;2.55;;
35304;SDS011;26433;48.034;-1.764;2023-06-10T22:27:29;5.50;;;3.13;;
35304;SDS011;26433;48.034;-1.764;2023-06-10T22:32:35;6.35;;;2.25;;
35304;SDS011;26433;48.034;-1.764;2023-06-10T22:37:38;2.85;;;1.85;;
35304;SDS011;26433;48.034;-1.764;2023-06-10T22:42:42;2.17;;;1.73;;
35304;SDS011;26433;48.034;-1.764;2023-06-10T22:47:47;3.33;;;1.87;;
35304;SDS011;26433;48.034;-1.764;2023-06-10T22:52:51;3.67;;;2.40;;
35304;SDS011;26433;48.034;-1.764;2023-06-10T23:03:00;2.67;;;1.87;;
35304;SDS011;26433;48.034;-1.764;2023-06-10T23:08:04;3.85;;;2.30;;
35304;SDS011;26433;48.034;-1.764;2023-06-10T23:13:07;3.17;;;1.73;;
35304;SDS011;26433;48.034;-1.764;2023-06-10T23:18:12;4.23;;;2.13;;
35304;SDS011;26433;48.034;-1.764;2023-06-10T23:23:16;4.82;;;1.77;;
35304;SDS011;26433;48.034;-1.764;2023-06-10T23:28:20;3.63;;;2.10;;
35304;SDS011;26433;48.034;-1.764;2023-06-10T23:33:25;3.10;;;1.80;;
35304;SDS011;26433;48.034;-1.764;2023-06-10T23:38:29;3.12;;;2.20;;
35304;SDS011;26433;48.034;-1.764;2023-06-10T23:43:33;3.97;;;2.60;;
35304;SDS011;26433;48.034;-1.764;2023-06-10T23:48:38;2.63;;;1.67;;
35304;SDS011;26433;48.034;-1.764;2023-06-10T23:53:41;2.20;;;1.67;;
35304;SDS011;26433;48.034;-1.764;2023-06-10T23:58:45;2.63;;;1.90;;
